createdAt,value
2017-09-09T00:03:58.000Z,20.58
2017-09-09T00:13:58.000Z,20.59
2017-09-09T00:23:58.000Z,20.58
2017-09-09T00:33:58.000Z,20.51
2017-09-09T00:43:59.000Z,20.53
2017-09-09T00:53:59.000Z,20.53
2017-09-09T01:03:59.000Z,20.56
2017-09-09T01:13:59.000Z,20.56
2017-09-09T01:23:59.000Z,20.54
2017-09-09T01:34:01.000Z,20.52
2017-09-09T01:43:59.000Z,20.52
2017-09-09T01:53:59.000Z,20.5
2017-09-09T02:03:59.000Z,20.47
2017-09-09T02:13:59.000Z,20.48
2017-09-09T02:23:59.000Z,20.46
2017-09-09T02:33:59.000Z,20.44
2017-09-09T02:43:59.000Z,20.42
2017-09-09T02:53:59.000Z,20.4
2017-09-09T03:03:59.000Z,20.36
2017-09-09T03:13:59.000Z,20.35
2017-09-09T03:23:59.000Z,20.33
2017-09-09T03:33:59.000Z,20.32
2017-09-09T03:43:59.000Z,20.29
2017-09-09T03:53:59.000Z,20.29
2017-09-09T04:03:59.000Z,20.26
2017-09-09T04:13:59.000Z,20.27
2017-09-09T04:23:59.000Z,20.24
2017-09-09T04:33:59.000Z,20.23
2017-09-09T04:43:59.000Z,20.23
2017-09-09T04:53:59.000Z,20.2
2017-09-09T05:03:59.000Z,20.19
2017-09-09T05:13:59.000Z,20.18
2017-09-09T05:23:59.000Z,20.17
2017-09-09T05:33:59.000Z,20.17
2017-09-09T05:43:59.000Z,20.16
2017-09-09T05:53:59.000Z,20.15
2017-09-09T06:03:59.000Z,20.15
2017-09-09T06:13:59.000Z,20.15
2017-09-09T06:23:59.000Z,20.14
2017-09-09T06:33:59.000Z,20.15
2017-09-09T06:43:59.000Z,20.13
2017-09-09T06:53:59.000Z,20.12
2017-09-09T07:03:59.000Z,20.1
2017-09-09T07:13:59.000Z,20.11
2017-09-09T07:23:59.000Z,20.1
2017-09-09T07:33:59.000Z,20.12
2017-09-09T07:43:59.000Z,20.14
2017-09-09T07:53:59.000Z,20.16
2017-09-09T08:03:59.000Z,20.21
2017-09-09T08:14:09.000Z,20.23
2017-09-09T08:24:09.000Z,20.15
2017-09-09T08:34:09.000Z,20.37
2017-09-09T08:44:09.000Z,20.35
2017-09-09T08:54:09.000Z,20.41
2017-09-09T09:04:19.000Z,20.35
2017-09-09T09:14:19.000Z,20.42
2017-09-09T09:24:18.000Z,20.66
2017-09-09T09:34:18.000Z,20.72
2017-09-09T09:44:18.000Z,20.76
2017-09-09T09:54:18.000Z,20.66
2017-09-09T10:04:18.000Z,20.56
2017-09-09T10:14:18.000Z,20.58
2017-09-09T10:24:18.000Z,20.7
2017-09-09T10:34:18.000Z,20.8
2017-09-09T10:44:18.000Z,20.68
2017-09-09T10:54:18.000Z,20.72
2017-09-09T11:04:18.000Z,20.64
2017-09-09T11:14:18.000Z,21.04
2017-09-09T11:24:18.000Z,20.93
2017-09-09T11:34:18.000Z,20.91
2017-09-09T11:44:18.000Z,20.93
2017-09-09T11:54:18.000Z,21.06
2017-09-09T12:04:19.000Z,21.13
2017-09-09T12:14:18.000Z,21.07
2017-09-09T12:24:18.000Z,21.15
2017-09-09T12:34:18.000Z,21.22
2017-09-09T12:44:18.000Z,21.17
2017-09-09T12:54:18.000Z,21.15
2017-09-09T13:04:18.000Z,21.19
2017-09-09T13:14:18.000Z,21.15
2017-09-09T13:24:18.000Z,21.14
2017-09-09T13:34:18.000Z,21.11
2017-09-09T13:44:19.000Z,21.13
2017-09-09T13:54:19.000Z,21.11
2017-09-09T14:04:19.000Z,21.09
2017-09-09T14:14:19.000Z,21.05
2017-09-09T14:24:19.000Z,21.06
2017-09-09T14:34:19.000Z,21.06
2017-09-09T14:44:19.000Z,21.07
2017-09-09T14:54:19.000Z,21.03
2017-09-09T15:04:19.000Z,21.11
2017-09-09T15:14:19.000Z,21.11
2017-09-09T15:24:19.000Z,21.15
2017-09-09T15:34:19.000Z,21.15
2017-09-09T15:44:19.000Z,21.11
2017-09-09T15:54:19.000Z,21.12
2017-09-09T16:04:19.000Z,21.09
2017-09-09T16:14:19.000Z,21.09
2017-09-09T16:24:19.000Z,21.09
2017-09-09T16:34:19.000Z,21.08
2017-09-09T16:44:19.000Z,21.05
2017-09-09T16:54:19.000Z,21.01
2017-09-09T17:04:19.000Z,20.98
2017-09-09T17:14:19.000Z,20.97
2017-09-09T17:24:19.000Z,21.1
2017-09-09T17:34:19.000Z,21.05
2017-09-09T17:44:19.000Z,21.01
2017-09-09T17:54:19.000Z,20.92
2017-09-09T18:04:19.000Z,20.94
2017-09-09T18:14:19.000Z,20.95
2017-09-09T18:24:19.000Z,21.02
2017-09-09T18:34:19.000Z,21.02
2017-09-09T18:44:19.000Z,21
2017-09-09T18:54:19.000Z,21.08
2017-09-09T19:04:19.000Z,21.27
2017-09-09T19:14:19.000Z,21.36
2017-09-09T19:24:19.000Z,21.42
2017-09-09T19:34:19.000Z,21.24
2017-09-09T19:44:19.000Z,21.18
2017-09-09T19:54:19.000Z,21.18
2017-09-09T20:04:19.000Z,21.19
2017-09-09T20:14:19.000Z,21.19
2017-09-09T20:24:19.000Z,21.21
2017-09-09T20:34:19.000Z,21.36
2017-09-09T20:44:19.000Z,21.39
2017-09-09T20:54:19.000Z,21.34
2017-09-09T21:04:19.000Z,21.28
2017-09-09T21:14:19.000Z,21.23
2017-09-09T21:24:19.000Z,21.17
2017-09-09T21:34:19.000Z,21.14
2017-09-09T21:44:19.000Z,21.09
2017-09-09T21:54:19.000Z,21.04
2017-09-09T22:04:19.000Z,21
2017-09-09T22:14:20.000Z,20.93
2017-09-09T22:24:20.000Z,20.88
2017-09-09T22:34:20.000Z,20.82
2017-09-09T22:44:20.000Z,20.79
2017-09-09T22:54:20.000Z,20.74
2017-09-09T23:04:20.000Z,20.7
2017-09-09T23:14:20.000Z,20.66
2017-09-09T23:24:20.000Z,20.62
2017-09-09T23:34:20.000Z,20.58
2017-09-09T23:44:20.000Z,20.55
2017-09-09T23:54:20.000Z,20.51
